createdAt,value
2018-04-10T00:02:36.601Z,6.03
2018-04-10T00:17:34.667Z,6.73
2018-04-10T00:32:34.608Z,8.23
2018-04-10T00:47:35.152Z,5.90
2018-04-10T01:02:34.586Z,7.00
2018-04-10T01:17:35.076Z,6.37
2018-04-10T01:32:33.848Z,5.77
2018-04-10T01:47:34.193Z,5.40
2018-04-10T02:02:34.788Z,4.97
2018-04-10T02:17:35.307Z,6.07
2018-04-10T02:32:34.667Z,6.67
2018-04-10T02:47:35.174Z,7.30
2018-04-10T03:02:35.072Z,7.13
2018-04-10T03:17:34.888Z,7.30
2018-04-10T03:32:36.472Z,7.30
2018-04-10T03:47:35.100Z,8.60
2018-04-10T04:02:37.731Z,8.03
2018-04-10T04:17:35.345Z,11.40
2018-04-10T04:32:35.772Z,18.07
2018-04-10T04:47:38.495Z,12.37
2018-04-10T05:02:36.940Z,12.83
2018-04-10T05:17:37.809Z,12.10
2018-04-10T05:47:38.305Z,13.60
2018-04-10T06:02:36.900Z,16.33
2018-04-10T06:17:34.876Z,12.37
2018-04-10T06:32:36.874Z,12.17
2018-04-10T06:47:34.832Z,11.80
2018-04-10T07:02:35.113Z,13.00
2018-04-10T07:17:35.046Z,13.57
2018-04-10T07:32:35.936Z,18.00
2018-04-10T07:47:34.877Z,13.67
2018-04-10T08:02:35.904Z,13.80
2018-04-10T08:17:36.165Z,13.27
2018-04-10T08:32:34.588Z,9.97
2018-04-10T08:47:34.474Z,11.10
2018-04-10T09:02:37.600Z,8.13
2018-04-10T09:17:37.379Z,7.60
2018-04-10T09:32:34.838Z,6.90
2018-04-10T09:47:38.222Z,7.10
2018-04-10T10:02:36.940Z,7.20
2018-04-10T10:32:39.917Z,7.50
2018-04-10T10:47:35.693Z,6.63
2018-04-10T11:02:37.430Z,6.90
2018-04-10T11:32:38.588Z,5.67
2018-04-10T11:47:35.298Z,5.80
2018-04-10T12:02:38.762Z,5.97
2018-04-10T12:17:35.819Z,5.63
2018-04-10T12:32:37.800Z,5.70
2018-04-10T12:47:38.804Z,5.30
2018-04-10T13:02:39.869Z,5.20
2018-04-10T13:17:39.266Z,5.30
2018-04-10T13:32:36.559Z,4.63
2018-04-10T13:47:34.964Z,5.10
2018-04-10T14:02:36.156Z,5.03
2018-04-10T15:02:46.646Z,4.33
2018-04-10T15:17:35.450Z,5.00
2018-04-10T15:32:36.160Z,4.40
2018-04-10T15:47:34.551Z,4.47
2018-04-10T16:02:35.308Z,4.60
2018-04-10T16:17:35.095Z,5.10
2018-04-10T16:32:35.623Z,7.00
2018-04-10T16:47:38.059Z,7.40
2018-04-10T17:02:36.629Z,6.07
2018-04-10T17:17:33.880Z,4.93
2018-04-10T17:32:36.724Z,4.83
2018-04-10T17:47:34.618Z,7.77
2018-04-10T18:02:35.092Z,9.40
2018-04-10T18:17:36.442Z,8.60
2018-04-10T18:47:44.447Z,7.40
2018-04-10T19:02:37.611Z,11.00
2018-04-10T19:17:19.261Z,9.17
2018-04-10T19:32:34.156Z,9.47
2018-04-10T19:47:34.768Z,11.37
2018-04-10T20:02:35.465Z,12.23
2018-04-10T20:17:35.413Z,9.10
2018-04-10T20:32:36.412Z,11.43
2018-04-10T20:47:40.679Z,9.00
2018-04-10T21:02:35.131Z,8.67
2018-04-10T21:17:35.617Z,8.60
2018-04-10T21:32:35.093Z,8.00
2018-04-10T21:47:33.732Z,8.70
2018-04-10T22:02:35.888Z,8.80
2018-04-10T22:17:34.848Z,10.07
2018-04-10T22:32:36.296Z,8.30
2018-04-10T22:47:37.690Z,7.80
2018-04-10T23:02:34.877Z,7.57
2018-04-10T23:17:33.973Z,6.73
2018-04-10T23:32:36.790Z,6.70
2018-04-10T23:47:35.415Z,12.00
